Time;durP1;ratioP1;P1;durP2;ratioP2;P2;SDS_P1;SDS_P2;PMS_P1;PMS_P2;Temp;Humidity;BMP_temperature;BMP_pressure;BME280_temperature;BME280_humidity;BME280_pressure;Samples;Min_cycle;Max_cycle;Signal;HPM_P1;HPM_P2
2021/07/05 03:02:35;;;;;;;2.03;0.73;;;24.20;63.50;;;;;;6174093;23;20028;-51
2021/07/05 03:05:02;;;;;;;2.13;0.80;;;24.20;63.60;;;;;;6174313;23;20012;-49
2021/07/05 03:07:27;;;;;;;2.80;1.10;;;24.20;63.60;;;;;;6174161;23;20099;-51
2021/07/05 03:09:54;;;;;;;2.13;0.98;;;24.20;63.60;;;;;;6174420;23;20437;-49
2021/07/05 03:12:20;;;;;;;2.28;0.85;;;24.20;63.60;;;;;;6174091;23;20005;-52
2021/07/05 03:14:46;;;;;;;4.88;0.93;;;24.20;63.60;;;;;;6174095;23;20001;-49
2021/07/05 03:17:12;;;;;;;2.30;0.90;;;24.20;63.60;;;;;;6174225;23;20012;-52
2021/07/05 03:21:42;;;;;;;1.88;0.60;;;24.20;63.20;;;;;;5100877;27;20481;-52
2021/07/05 03:24:08;;;;;;;1.90;0.80;;;24.20;63.60;;;;;;5100771;28;20467;-49
2021/07/05 03:26:34;;;;;;;1.85;0.80;;;24.20;63.50;;;;;;5100660;28;20032;-50
2021/07/05 03:28:59;;;;;;;2.45;0.80;;;24.20;63.50;;;;;;5100637;28;20020;-50
2021/07/05 03:31:25;;;;;;;2.70;1.10;;;24.20;63.60;;;;;;5100661;28;20390;-50
2021/07/05 03:33:50;;;;;;;2.25;0.90;;;24.20;63.60;;;;;;5100552;28;20081;-50
2021/07/05 03:36:16;;;;;;;2.72;0.95;;;24.20;63.60;;;;;;5100578;28;20024;-51
2021/07/05 03:38:42;;;;;;;1.95;0.77;;;24.20;63.60;;;;;;5100420;28;20048;-51
2021/07/05 03:41:07;;;;;;;2.65;1.33;;;24.20;63.60;;;;;;5099971;28;20643;-52
2021/07/05 03:43:33;;;;;;;1.63;0.68;;;24.20;63.60;;;;;;5100481;28;20036;-51
2021/07/05 03:45:58;;;;;;;3.30;0.77;;;24.20;63.80;;;;;;5100271;28;20058;-50
2021/07/05 03:48:24;;;;;;;4.55;1.02;;;24.20;63.60;;;;;;5100282;28;21286;-52
2021/07/05 03:50:50;;;;;;;3.22;0.80;;;24.20;63.80;;;;;;5100163;28;20081;-50
2021/07/05 03:53:15;;;;;;;4.20;0.90;;;24.20;64.20;;;;;;5100244;28;20053;-51
2021/07/05 03:55:41;;;;;;;3.80;1.42;;;24.20;63.80;;;;;;5100223;28;20028;-50
2021/07/05 03:58:08;;;;;;;3.63;0.85;;;24.20;64.30;;;;;;5100030;28;20020;-50
2021/07/05 04:00:37;;;;;;;3.45;0.90;;;24.20;63.90;;;;;;5099870;28;20035;-51
2021/07/05 04:03:03;;;;;;;3.17;1.10;;;24.30;63.80;;;;;;5099616;28;20020;-50
2021/07/05 04:05:29;;;;;;;1.92;0.63;;;24.20;63.80;;;;;;5085414;28;20028;-51
2021/07/05 04:09:14;;;;;;;2.65;0.80;;;24.30;63.90;;;;;;5090718;27;20558;-51
2021/07/05 04:11:39;;;;;;;3.15;0.90;;;24.20;64.00;;;;;;5077130;28;20441;-52
2021/07/05 04:14:05;;;;;;;3.15;1.00;;;24.30;63.90;;;;;;5084177;28;20031;-51
2021/07/05 04:16:30;;;;;;;2.75;0.95;;;24.30;63.90;;;;;;5070634;28;20024;-50
2021/07/05 04:18:56;;;;;;;4.18;1.00;;;24.30;64.30;;;;;;5070467;28;20032;-51
2021/07/05 04:21:25;;;;;;;5.82;1.27;;;24.30;64.20;;;;;;5066741;28;20025;-52
2021/07/05 04:23:52;;;;;;;4.65;0.90;;;24.30;64.10;;;;;;5068911;28;20423;-52
2021/07/05 04:26:17;;;;;;;5.45;0.90;;;24.30;64.00;;;;;;5059901;28;20120;-51
2021/07/05 04:28:43;;;;;;;6.05;1.88;;;24.30;64.00;;;;;;5059151;28;20111;-51
2021/07/05 04:31:09;;;;;;;10.63;1.25;;;24.20;63.80;;;;;;5062260;28;20024;-52
2021/07/05 04:33:34;;;;;;;17.83;2.10;;;24.30;63.90;;;;;;5062414;28;20070;-50
2021/07/05 04:36:00;;;;;;;13.98;1.83;;;24.20;64.00;;;;;;5059783;28;20077;-50
2021/07/05 04:38:26;;;;;;;8.57;1.10;;;24.30;64.10;;;;;;5070928;28;20093;-51
2021/07/05 04:40:53;;;;;;;13.32;1.85;;;24.30;64.30;;;;;;5079965;28;20694;-50
2021/07/05 04:43:19;;;;;;;9.55;1.02;;;24.30;64.20;;;;;;5079827;28;20028;-51
2021/07/05 04:45:45;;;;;;;5.85;1.30;;;24.30;63.90;;;;;;5076678;28;20705;-50
2021/07/05 04:48:12;;;;;;;9.30;1.70;;;24.30;64.00;;;;;;5068080;28;20423;-51
2021/07/05 04:50:38;;;;;;;10.18;1.25;;;24.20;64.00;;;;;;5076618;28;20063;-51
2021/07/05 04:53:05;;;;;;;6.60;1.05;;;24.30;64.30;;;;;;5079748;28;20056;-51
2021/07/05 04:55:31;;;;;;;8.82;1.73;;;24.30;64.10;;;;;;5076464;28;20032;-51
2021/07/05 04:57:59;;;;;;;9.77;1.55;;;24.20;64.00;;;;;;5079578;28;20051;-51
2021/07/05 05:00:28;;;;;;;8.20;1.38;;;24.30;63.90;;;;;;5079492;28;20016;-51
2021/07/05 05:02:54;;;;;;;6.22;1.15;;;24.20;64.10;;;;;;5079381;28;20091;-51
2021/07/05 05:07:10;;;;;;;7.65;0.95;;;24.20;63.40;;;;;;5100942;27;20481;-51
2021/07/05 05:09:36;;;;;;;5.00;1.00;;;24.20;63.80;;;;;;5089197;28;20059;-51
2021/07/05 05:12:02;;;;;;;6.30;0.95;;;24.20;63.70;;;;;;5080131;28;20031;-50
2021/07/05 05:14:28;;;;;;;4.10;1.10;;;24.20;63.70;;;;;;5080075;28;20017;-52
2021/07/05 05:16:53;;;;;;;5.78;0.98;;;24.20;63.70;;;;;;5080383;28;20020;-51
2021/07/05 05:19:19;;;;;;;4.25;1.25;;;24.20;63.60;;;;;;5080242;28;20125;-50
2021/07/05 05:22:13;;;;;;;20.65;7.57;;;24.20;63.10;;;;;;5060370;28;20473;-50
2021/07/05 05:24:39;;;;;;;16.70;7.80;;;24.20;63.60;;;;;;5060186;28;20036;-50
2021/07/05 05:27:05;;;;;;;15.65;5.57;;;24.10;63.50;;;;;;5060087;28;20036;-52
2021/07/05 05:29:30;;;;;;;9.82;4.22;;;24.10;63.50;;;;;;5060074;28;20079;-51
2021/07/05 05:31:56;;;;;;;6.22;2.67;;;24.20;63.50;;;;;;5060170;28;20071;-50
2021/07/05 05:34:22;;;;;;;11.88;3.80;;;24.10;63.50;;;;;;5059931;28;20056;-51
2021/07/05 05:36:48;;;;;;;9.02;3.08;;;24.20;63.50;;;;;;5058402;28;20347;-51
2021/07/05 05:39:40;;;;;;;10.85;3.10;;;24.10;63.10;;;;;;5098893;27;20538;-51
2021/07/05 05:42:05;;;;;;;8.48;2.97;;;24.10;63.50;;;;;;5078384;28;20067;-51
2021/07/05 05:44:31;;;;;;;8.02;3.03;;;24.10;63.50;;;;;;5078265;28;20024;-51
2021/07/05 05:46:57;;;;;;;7.43;2.83;;;24.10;63.60;;;;;;5078538;28;20021;-50
2021/07/05 05:49:23;;;;;;;8.18;2.80;;;24.10;63.60;;;;;;5078235;28;20028;-50
2021/07/05 05:51:49;;;;;;;6.68;2.92;;;24.10;63.70;;;;;;5078552;28;20453;-50
2021/07/05 05:54:16;;;;;;;7.35;2.78;;;24.10;63.70;;;;;;5078406;28;20086;-50
2021/07/05 05:56:42;;;;;;;7.68;2.53;;;24.10;63.70;;;;;;5078702;28;20036;-50
2021/07/05 05:59:10;;;;;;;7.80;2.38;;;24.10;63.70;;;;;;5078278;28;20496;-52
2021/07/05 06:01:38;;;;;;;5.80;2.30;;;24.10;63.90;;;;;;5078627;28;20036;-50
2021/07/05 06:04:05;;;;;;;10.00;2.10;;;24.10;64.10;;;;;;5078702;28;20525;-50
2021/07/05 06:06:33;;;;;;;7.40;2.00;;;24.10;64.30;;;;;;5078461;28;20067;-51
2021/07/05 06:08:59;;;;;;;4.38;1.55;;;24.10;64.10;;;;;;5078249;28;20444;-50
2021/07/05 06:11:25;;;;;;;6.75;2.33;;;24.10;64.00;;;;;;5078380;28;20426;-50
2021/07/05 06:13:51;;;;;;;6.85;2.20;;;24.10;63.90;;;;;;5078212;28;20040;-50
2021/07/05 06:16:17;;;;;;;7.22;2.00;;;24.10;63.70;;;;;;5078289;28;20060;-50
2021/07/05 06:18:42;;;;;;;4.68;1.55;;;24.10;63.70;;;;;;5078002;28;20032;-51
2021/07/05 06:21:09;;;;;;;8.30;1.77;;;24.10;63.70;;;;;;5078013;28;20034;-50
2021/07/05 06:23:34;;;;;;;5.15;1.58;;;24.00;63.60;;;;;;5077948;28;20383;-50
2021/07/05 06:26:03;;;;;;;9.48;1.70;;;24.00;63.70;;;;;;5077815;28;20025;-50
2021/07/05 06:28:31;;;;;;;9.95;1.92;;;24.00;63.70;;;;;;5077686;28;20024;-51
2021/07/05 06:30:58;;;;;;;14.32;2.63;;;24.10;63.90;;;;;;5077225;28;20370;-51
2021/07/05 06:33:23;;;;;;;8.55;1.83;;;24.00;64.10;;;;;;5077650;28;20096;-50
2021/07/05 06:35:50;;;;;;;6.68;1.50;;;24.00;64.20;;;;;;5077516;28;20550;-50
2021/07/05 06:38:18;;;;;;;8.10;1.58;;;24.10;64.10;;;;;;5077253;28;20127;-50
2021/07/05 06:40:57;;;;;;;11.15;2.20;;;24.00;63.60;;;;;;5058650;28;20427;-50
2021/07/05 06:43:24;;;;;;;5.30;1.90;;;24.00;64.10;;;;;;5058642;28;20052;-51
2021/07/05 06:45:49;;;;;;;6.43;1.40;;;24.00;64.00;;;;;;5058430;28;20031;-50
2021/07/05 06:49:29;;;;;;;5.28;1.40;;;24.00;63.50;;;;;;5119425;27;20475;-50
2021/07/05 06:51:55;;;;;;;6.45;1.50;;;24.00;63.90;;;;;;5119902;27;20260;-50
2021/07/05 06:54:20;;;;;;;5.80;1.30;;;24.00;64.00;;;;;;5119337;27;20042;-50
2021/07/05 06:56:46;;;;;;;3.22;1.23;;;24.00;64.00;;;;;;5109044;27;20028;-49
2021/07/05 06:59:12;;;;;;;7.80;1.35;;;24.00;64.10;;;;;;5110912;28;20020;-51
2021/07/05 07:01:39;;;;;;;4.32;1.00;;;24.00;64.10;;;;;;5103268;28;20398;-50
2021/07/05 07:04:05;;;;;;;8.18;1.58;;;24.00;64.10;;;;;;5099935;28;20035;-53
2021/07/05 07:06:31;;;;;;;3.72;1.35;;;24.00;64.50;;;;;;5099905;28;20099;-51
2021/07/05 07:08:57;;;;;;;5.43;1.63;;;24.00;64.30;;;;;;5100184;28;20119;-50
2021/07/05 07:11:23;;;;;;;5.22;1.75;;;24.00;64.60;;;;;;5100469;28;20077;-50
2021/07/05 07:13:48;;;;;;;11.13;3.83;;;24.00;64.50;;;;;;5100210;28;20077;-50
2021/07/05 07:16:16;;;;;;;14.65;6.95;;;24.10;64.70;;;;;;5104603;28;20592;-51
2021/07/05 07:18:57;;;;;;;17.13;9.85;;;24.00;64.50;;;;;;5120572;27;20023;-50
2021/07/05 07:21:24;;;;;;;14.30;8.50;;;24.00;64.30;;;;;;5119663;27;20028;-50
2021/07/05 07:23:50;;;;;;;17.25;7.13;;;24.00;64.30;;;;;;5103465;27;20024;-50
2021/07/05 07:26:17;;;;;;;21.60;8.95;;;24.00;64.20;;;;;;5099999;28;20016;-51
2021/07/05 07:28:42;;;;;;;20.88;10.30;;;24.00;64.10;;;;;;5099837;28;20082;-50
2021/07/05 07:31:08;;;;;;;19.80;8.43;;;24.00;64.00;;;;;;5099966;28;20094;-50
2021/07/05 07:33:34;;;;;;;21.70;8.65;;;24.00;64.00;;;;;;5099994;28;20077;-50
2021/07/05 07:36:02;;;;;;;16.20;6.70;;;24.00;64.00;;;;;;5099873;28;20024;-50
2021/07/05 07:38:33;;;;;;;16.38;7.68;;;24.00;64.00;;;;;;5099930;28;20027;-50
2021/07/05 07:40:58;;;;;;;14.05;5.85;;;24.00;64.10;;;;;;5099853;28;20023;-50
2021/07/05 07:43:24;;;;;;;13.38;6.05;;;24.00;64.40;;;;;;5099462;28;20024;-51
2021/07/05 07:45:50;;;;;;;13.15;6.25;;;24.00;64.40;;;;;;5098240;28;20012;-50
2021/07/05 07:48:15;;;;;;;13.23;4.90;;;24.00;64.60;;;;;;5098128;28;20047;-50
2021/07/05 07:50:41;;;;;;;11.85;5.47;;;24.00;64.70;;;;;;5110086;28;20126;-50
2021/07/05 07:53:07;;;;;;;14.27;6.90;;;24.10;64.70;;;;;;5118343;27;20023;-50
2021/07/05 07:55:32;;;;;;;16.77;6.72;;;24.10;64.70;;;;;;5118110;27;20019;-50
2021/07/05 07:57:58;;;;;;;11.63;5.47;;;24.10;64.60;;;;;;5118264;27;20069;-50
2021/07/05 08:00:24;;;;;;;13.55;5.68;;;24.00;64.80;;;;;;5106800;27;20035;-50
2021/07/05 08:03:29;;;;;;;14.55;6.07;;;24.10;64.40;;;;;;5098840;27;1281864;-50
2021/07/05 08:05:55;;;;;;;9.85;5.03;;;24.00;64.90;;;;;;5119753;27;20558;-50
2021/07/05 08:08:22;;;;;;;10.25;5.50;;;24.00;65.10;;;;;;5118974;27;20011;-50
2021/07/05 08:10:48;;;;;;;12.38;6.47;;;24.10;65.30;;;;;;5099146;28;20050;-51
2021/07/05 08:13:13;;;;;;;12.18;6.22;;;24.10;65.30;;;;;;5099119;28;20471;-50
2021/07/05 08:15:39;;;;;;;14.85;6.35;;;24.10;65.60;;;;;;5099058;28;20346;-52
2021/07/05 08:19:13;;;;;;;11.68;6.50;;;24.10;65.10;;;;;;5058620;28;20472;-52
2021/07/05 08:21:41;;;;;;;12.48;5.95;;;24.10;65.60;;;;;;5058614;28;20048;-51
2021/07/05 08:24:07;;;;;;;9.30;5.80;;;24.20;65.70;;;;;;5058455;28;20595;-51
2021/07/05 08:26:33;;;;;;;11.88;5.88;;;24.20;65.80;;;;;;5058519;28;20025;-51
2021/07/05 08:28:58;;;;;;;12.23;6.32;;;24.20;65.80;;;;;;5058200;28;20025;-52
2021/07/05 08:31:24;;;;;;;11.95;7.25;;;24.20;66.00;;;;;;5058398;28;20503;-51
2021/07/05 08:33:51;;;;;;;12.30;6.28;;;24.20;66.00;;;;;;5058277;28;20071;-51
2021/07/05 08:36:18;;;;;;;11.30;6.88;;;24.20;66.00;;;;;;5058195;28;20598;-51
2021/07/05 08:38:45;;;;;;;10.70;5.93;;;24.20;66.00;;;;;;5058067;28;20051;-52
2021/07/05 08:41:12;;;;;;;13.77;6.38;;;24.20;66.00;;;;;;5058251;28;20052;-51
2021/07/05 08:43:41;;;;;;;11.60;5.85;;;24.20;66.00;;;;;;5058397;28;20039;-51
2021/07/05 08:47:54;;;;;;;12.90;7.28;;;24.20;65.10;;;;;;5058738;28;20427;-51
2021/07/05 08:50:24;;;;;;;12.75;6.72;;;24.20;65.60;;;;;;5052075;28;20091;-51
2021/07/05 08:52:50;;;;;;;8.55;6.13;;;24.20;65.60;;;;;;5049409;28;20131;-52
2021/07/05 08:55:18;;;;;;;12.27;6.22;;;24.20;65.60;;;;;;5060142;28;20021;-51
2021/07/05 08:57:45;;;;;;;11.35;5.80;;;24.20;65.90;;;;;;5060073;28;20060;-51
2021/07/05 09:00:17;;;;;;;11.43;6.15;;;24.20;65.90;;;;;;5059842;28;20029;-51
2021/07/05 09:02:43;;;;;;;9.32;5.93;;;24.20;65.90;;;;;;5059799;28;20017;-51
2021/07/05 09:05:10;;;;;;;10.68;6.45;;;24.20;66.10;;;;;;5059590;28;20092;-51
2021/07/05 09:08:01;;;;;;;10.23;6.65;;;24.30;66.20;;;;;;5059761;28;20547;-51
2021/07/05 09:10:37;;;;;;;11.43;6.15;;;24.30;66.40;;;;;;5059592;28;20048;-52
2021/07/05 09:13:08;;;;;;;13.38;6.40;;;24.30;66.50;;;;;;5056197;28;20032;-50
2021/07/05 09:15:37;;;;;;;11.10;6.97;;;24.30;66.70;;;;;;5053716;28;20027;-52
2021/07/05 09:19:18;;;;;;;13.63;6.78;;;24.30;66.50;;;;;;5100360;27;20819;-51
2021/07/05 09:21:54;;;;;;;8.73;6.05;;;24.30;67.00;;;;;;5080340;28;20441;-51
2021/07/05 09:24:30;;;;;;;10.38;5.68;;;24.30;66.90;;;;;;5080371;28;20651;-52
2021/07/05 09:27:07;;;;;;;11.55;6.93;;;24.30;66.90;;;;;;5080285;28;20194;-52
2021/07/05 09:29:34;;;;;;;11.82;6.32;;;24.30;66.90;;;;;;5080207;28;20024;-51
2021/07/05 09:32:08;;;;;;;7.55;5.40;;;24.40;67.00;;;;;;5080225;28;20020;-51
2021/07/05 09:34:43;;;;;;;10.57;6.10;;;24.40;67.10;;;;;;5080173;28;20436;-51
2021/07/05 09:37:23;;;;;;;10.52;6.20;;;24.40;67.10;;;;;;5079793;28;20028;-52
2021/07/05 09:40:10;;;;;;;12.88;5.97;;;24.40;67.20;;;;;;5079878;28;20028;-50
2021/07/05 09:42:49;;;;;;;11.88;7.03;;;24.40;67.20;;;;;;5080042;28;20032;-51
2021/07/05 09:45:31;;;;;;;10.50;6.40;;;24.40;67.20;;;;;;5079851;28;20016;-52
2021/07/05 09:48:25;;;;;;;10.25;5.93;;;24.40;67.30;;;;;;5079960;28;20023;-52
2021/07/05 09:51:00;;;;;;;10.48;5.95;;;24.40;67.20;;;;;;5079580;28;20043;-51
2021/07/05 09:53:32;;;;;;;18.17;6.95;;;24.50;67.30;;;;;;5079777;28;20023;-52
2021/07/05 09:56:27;;;;;;;15.45;7.35;;;24.40;67.00;;;;;;5060154;28;20477;-50
2021/07/05 09:58:55;;;;;;;12.10;5.70;;;24.40;68.00;;;;;;5060103;28;20025;-52
2021/07/05 10:01:41;;;;;;;13.55;6.30;;;24.40;68.20;;;;;;5059967;28;20027;-52
2021/07/05 10:04:10;;;;;;;28.10;12.63;;;24.40;68.70;;;;;;5058690;28;20017;-50
2021/07/05 10:06:45;;;;;;;126.03;49.35;;;24.40;69.10;;;;;;5044535;28;20017;-51
2021/07/05 10:09:12;;;;;;;62.38;27.20;;;24.50;69.70;;;;;;5041954;28;20016;-51
2021/07/05 10:11:38;;;;;;;63.25;25.73;;;24.40;70.10;;;;;;5040045;28;20052;-52
2021/07/05 10:14:13;;;;;;;64.18;23.95;;;24.50;70.60;;;;;;5039829;28;20029;-51
2021/07/05 10:16:40;;;;;;;41.08;17.60;;;24.50;72.30;;;;;;5039814;28;20028;-50
2021/07/05 10:19:07;;;;;;;29.55;13.63;;;24.50;71.30;;;;;;5039591;28;20029;-51
2021/07/05 10:21:34;;;;;;;29.70;13.90;;;24.50;71.00;;;;;;5039811;28;20070;-52
2021/07/05 10:24:01;;;;;;;25.02;12.95;;;24.50;71.20;;;;;;5057564;28;20017;-51
2021/07/05 10:26:27;;;;;;;27.08;12.77;;;24.50;71.50;;;;;;5059553;28;20491;-51
2021/07/05 10:28:54;;;;;;;26.45;13.30;;;24.50;71.80;;;;;;5041460;28;20025;-51
2021/07/05 10:31:20;;;;;;;26.63;12.63;;;24.60;72.10;;;;;;5059210;28;20044;-52
2021/07/05 10:33:45;;;;;;;22.75;11.55;;;24.60;72.70;;;;;;5059614;28;20035;-50
2021/07/05 10:36:11;;;;;;;21.27;11.75;;;24.60;72.40;;;;;;5058592;28;20028;-51
2021/07/05 10:40:10;;;;;;;23.90;13.55;;;24.60;72.30;;;;;;5059321;28;20460;-51
2021/07/05 10:42:39;;;;;;;24.48;11.13;;;24.60;73.10;;;;;;5058713;28;20111;-51
2021/07/05 10:45:11;;;;;;;21.63;10.65;;;24.60;72.50;;;;;;5058301;28;20017;-51
2021/07/05 10:47:43;;;;;;;18.92;10.38;;;24.60;73.20;;;;;;5058326;28;20009;-51
2021/07/05 10:50:29;;;;;;;18.33;9.35;;;24.60;73.20;;;;;;5057987;28;20025;-51
2021/07/05 10:52:55;;;;;;;18.42;9.23;;;24.60;72.80;;;;;;5057994;28;20456;-52
2021/07/05 10:55:50;;;;;;;19.73;8.73;;;24.60;72.40;;;;;;5058434;28;20036;-50
2021/07/05 10:58:26;;;;;;;16.83;8.32;;;24.60;71.90;;;;;;5057422;28;20499;-52
2021/07/05 11:01:05;;;;;;;19.15;8.52;;;24.60;71.70;;;;;;5056830;28;20450;-51
2021/07/05 11:03:40;;;;;;;16.88;9.05;;;24.60;71.40;;;;;;5058460;28;20024;-51
2021/07/05 11:06:22;;;;;;;17.48;8.45;;;24.70;71.30;;;;;;5058384;28;20024;-50
2021/07/05 11:08:52;;;;;;;14.20;7.55;;;24.60;71.10;;;;;;5058269;28;20031;-52
2021/07/05 11:11:28;;;;;;;12.65;7.20;;;24.70;70.90;;;;;;5058136;28;20414;-50
2021/07/05 11:14:22;;;;;;;19.13;7.95;;;24.70;70.70;;;;;;5058107;28;20048;-51
2021/07/05 11:17:08;;;;;;;12.40;7.03;;;24.60;70.50;;;;;;5056701;28;20075;-51
2021/07/05 11:19:37;;;;;;;14.82;7.30;;;24.70;70.40;;;;;;5057677;28;20124;-51
2021/07/05 11:22:11;;;;;;;14.95;6.53;;;24.70;70.30;;;;;;5057919;28;20093;-51
2021/07/05 11:25:18;;;;;;;13.90;7.22;;;24.70;70.30;;;;;;5055713;28;20078;-51
2021/07/05 11:28:03;;;;;;;10.32;6.03;;;24.70;71.20;;;;;;5056738;28;20029;-51
2021/07/05 11:30:32;;;;;;;11.15;5.65;;;24.80;70.70;;;;;;5057397;28;20099;-50
2021/07/05 11:33:20;;;;;;;9.30;5.20;;;24.80;69.90;;;;;;5058075;28;20036;-52
2021/07/05 11:35:58;;;;;;;11.32;5.65;;;24.80;69.60;;;;;;5056927;28;20029;-51
2021/07/05 11:38:38;;;;;;;11.40;6.78;;;24.80;69.20;;;;;;5055577;28;20213;-51
2021/07/05 11:41:10;;;;;;;10.40;4.88;;;24.80;69.20;;;;;;5056321;28;20570;-50
2021/07/05 11:43:56;;;;;;;11.13;4.93;;;24.80;69.20;;;;;;5055145;28;20893;-50
2021/07/05 11:46:58;;;;;;;13.95;6.35;;;24.80;68.60;;;;;;5099342;27;20524;-50
2021/07/05 11:49:26;;;;;;;9.95;5.30;;;24.80;69.00;;;;;;5089861;28;20119;-53
2021/07/05 11:53:13;;;;;;;13.02;5.55;;;24.90;68.50;;;;;;5098829;27;21021;-50
2021/07/05 11:55:39;;;;;;;12.20;5.00;;;24.90;68.90;;;;;;5099514;28;20127;-51
2021/07/05 11:58:07;;;;;;;9.88;4.60;;;24.90;68.80;;;;;;5099513;28;20545;-51
2021/07/05 12:00:42;;;;;;;9.27;4.80;;;24.90;69.00;;;;;;5099385;28;20077;-51
2021/07/05 12:03:14;;;;;;;7.70;4.30;;;24.90;69.00;;;;;;5099200;28;20020;-51
2021/07/05 12:05:45;;;;;;;9.48;4.43;;;24.90;69.00;;;;;;5095366;28;20028;-51
2021/07/05 12:08:14;;;;;;;9.05;4.65;;;24.90;69.10;;;;;;5094970;28;20485;-51
2021/07/05 12:10:45;;;;;;;9.15;4.60;;;24.90;69.10;;;;;;5094017;28;20024;-51
2021/07/05 12:13:16;;;;;;;8.07;4.55;;;24.90;69.10;;;;;;5085183;28;20034;-52
2021/07/05 12:15:43;;;;;;;10.80;4.75;;;24.90;69.00;;;;;;5091979;28;20058;-51
2021/07/05 12:18:15;;;;;;;8.23;3.92;;;24.90;69.10;;;;;;5081419;28;20115;-52
2021/07/05 12:20:41;;;;;;;8.70;4.38;;;24.90;69.10;;;;;;5095162;28;20036;-51
2021/07/05 12:23:45;;;;;;;7.68;3.90;;;24.90;68.70;;;;;;5079562;27;20432;-53
2021/07/05 12:26:17;;;;;;;10.25;4.55;;;24.90;69.20;;;;;;5066880;28;20052;-51
2021/07/05 12:29:03;;;;;;;9.77;3.70;;;24.90;69.10;;;;;;5022291;28;20024;-51
2021/07/05 12:31:29;;;;;;;15.23;4.22;;;24.90;68.80;;;;;;5039996;28;20064;-51
2021/07/05 12:33:56;;;;;;;11.15;3.80;;;24.90;68.80;;;;;;5039809;28;20048;-50
2021/07/05 12:36:22;;;;;;;9.88;3.70;;;25.00;69.10;;;;;;5042459;28;20078;-51
2021/07/05 12:39:06;;;;;;;16.48;4.38;;;24.90;69.00;;;;;;5059651;28;20372;-51
2021/07/05 12:41:37;;;;;;;8.38;4.35;;;24.90;69.20;;;;;;5059879;28;20699;-51
2021/07/05 12:44:15;;;;;;;9.00;3.72;;;25.00;69.30;;;;;;5059740;28;20040;-51
2021/07/05 12:46:42;;;;;;;7.20;4.07;;;25.00;69.40;;;;;;5055965;28;20041;-51
2021/07/05 12:49:09;;;;;;;8.00;3.90;;;25.00;69.40;;;;;;5047337;28;20028;-52
2021/07/05 12:51:36;;;;;;;6.20;3.63;;;25.00;69.50;;;;;;5051702;28;20033;-52
2021/07/05 12:54:21;;;;;;;7.50;3.17;;;25.00;69.50;;;;;;5048773;28;20017;-51
2021/07/05 12:56:47;;;;;;;6.57;2.95;;;25.00;69.40;;;;;;5049283;28;20053;-50
2021/07/05 12:59:18;;;;;;;6.93;3.03;;;25.00;69.20;;;;;;5047463;28;20447;-51
2021/07/05 13:03:12;;;;;;;7.40;3.53;;;25.00;68.60;;;;;;5098464;27;20577;-52
2021/07/05 13:05:40;;;;;;;7.15;3.28;;;25.10;69.10;;;;;;5088017;28;20047;-51
2021/07/05 13:08:06;;;;;;;9.35;3.05;;;25.10;69.30;;;;;;5085173;28;20388;-53
2021/07/05 13:10:41;;;;;;;7.05;3.10;;;25.00;69.30;;;;;;5085769;28;20016;-51
2021/07/05 13:13:10;;;;;;;7.80;3.30;;;25.10;69.40;;;;;;5067004;28;20391;-50
2021/07/05 13:15:56;;;;;;;8.38;3.45;;;25.00;68.90;;;;;;5060573;27;20503;-52
2021/07/05 13:18:24;;;;;;;7.35;3.50;;;25.00;69.40;;;;;;5060013;28;20049;-51
2021/07/05 13:20:56;;;;;;;6.93;3.05;;;25.00;69.50;;;;;;5033091;28;20040;-51
2021/07/05 13:23:43;;;;;;;7.82;3.83;;;25.10;69.60;;;;;;5031926;28;20025;-51
2021/07/05 13:26:37;;;;;;;8.05;3.33;;;25.10;69.20;;;;;;5042524;27;2434086;-50
2021/07/05 13:29:15;;;;;;;7.78;3.08;;;25.10;69.50;;;;;;5108156;27;20118;-51
2021/07/05 13:31:41;;;;;;;5.55;3.00;;;25.10;69.50;;;;;;5088012;28;20063;-50
2021/07/05 13:34:28;;;;;;;6.88;2.97;;;25.10;69.50;;;;;;5087206;28;20099;-52
2021/07/05 13:36:55;;;;;;;6.47;2.55;;;25.10;69.60;;;;;;5093344;28;20025;-51
2021/07/05 13:39:30;;;;;;;7.82;3.13;;;25.10;69.60;;;;;;5082422;28;20491;-52
2021/07/05 13:42:12;;;;;;;8.02;3.20;;;25.10;69.50;;;;;;5093204;28;20019;-52
2021/07/05 13:44:39;;;;;;;5.85;3.13;;;25.10;69.50;;;;;;5091892;28;20065;-51
2021/07/05 13:47:14;;;;;;;7.85;2.90;;;25.10;69.50;;;;;;5100119;28;20941;-51
2021/07/05 13:49:40;;;;;;;8.80;2.95;;;25.10;69.50;;;;;;5099781;28;20035;-51
2021/07/05 13:52:06;;;;;;;8.00;3.72;;;25.10;69.50;;;;;;5092992;28;20375;-51
2021/07/05 13:54:32;;;;;;;7.90;2.80;;;25.10;69.70;;;;;;5094224;28;20032;-51
2021/07/05 13:57:18;;;;;;;8.48;3.58;;;25.10;69.60;;;;;;5087868;28;20016;-51
2021/07/05 13:59:44;;;;;;;7.35;3.03;;;25.10;69.70;;;;;;5086883;28;20038;-51
2021/07/05 14:02:14;;;;;;;7.43;2.83;;;25.10;69.80;;;;;;5095196;28;20077;-51
2021/07/05 14:05:37;;;;;;;6.97;3.40;;;25.10;69.50;;;;;;5075582;27;20587;-50
2021/07/05 14:08:05;;;;;;;9.30;3.05;;;25.10;70.00;;;;;;5082794;28;20040;-51
2021/07/05 14:10:31;;;;;;;7.38;3.17;;;25.10;69.80;;;;;;5095823;28;20026;-52
2021/07/05 14:12:58;;;;;;;12.38;4.15;;;25.10;69.50;;;;;;5096041;28;20108;-51
2021/07/05 14:15:24;;;;;;;10.90;3.97;;;25.20;69.70;;;;;;5086002;28;20103;-51
2021/07/05 14:17:50;;;;;;;13.65;4.13;;;25.10;69.60;;;;;;5059491;28;20682;-52
2021/07/05 14:20:17;;;;;;;9.48;3.65;;;25.10;69.70;;;;;;5055308;28;20291;-52
2021/07/05 14:22:43;;;;;;;7.45;3.30;;;25.10;69.70;;;;;;5055234;28;20032;-51
2021/07/05 14:25:12;;;;;;;6.78;3.00;;;25.10;69.20;;;;;;5075439;28;20750;-52
2021/07/05 14:27:38;;;;;;;10.85;3.58;;;25.10;69.50;;;;;;5075500;28;20028;-50
2021/07/05 14:30:07;;;;;;;6.75;2.88;;;25.10;69.60;;;;;;5075378;28;20024;-52
2021/07/05 14:32:33;;;;;;;9.45;3.45;;;25.10;69.50;;;;;;5074403;28;20025;-51
2021/07/05 14:34:58;;;;;;;10.07;3.13;;;25.10;69.60;;;;;;5055069;28;20494;-51
2021/07/05 14:37:24;;;;;;;10.20;3.28;;;25.10;69.50;;;;;;5054999;28;20025;-50
2021/07/05 14:39:50;;;;;;;7.82;2.75;;;25.10;69.40;;;;;;5054790;28;20044;-51
2021/07/05 14:42:16;;;;;;;8.30;2.30;;;25.10;69.40;;;;;;5054857;28;20036;-51
2021/07/05 14:44:43;;;;;;;6.47;2.67;;;25.10;69.50;;;;;;5054806;28;20056;-51
2021/07/05 14:47:12;;;;;;;11.88;2.60;;;25.10;69.40;;;;;;5063883;28;20030;-51
2021/07/05 14:49:38;;;;;;;7.40;2.40;;;25.10;69.40;;;;;;5074605;28;20039;-51
2021/07/05 14:52:05;;;;;;;5.55;2.80;;;25.10;69.30;;;;;;5074919;28;20741;-51
2021/07/05 14:54:32;;;;;;;6.38;2.88;;;25.10;69.30;;;;;;5074773;28;20044;-50
2021/07/05 14:56:58;;;;;;;9.10;2.42;;;25.10;69.20;;;;;;5074839;28;20028;-53
2021/07/05 14:59:23;;;;;;;7.20;2.83;;;25.10;69.20;;;;;;5074725;28;20679;-51
2021/07/05 15:01:49;;;;;;;4.88;2.20;;;25.00;69.10;;;;;;5074277;28;20029;-51
2021/07/05 15:04:15;;;;;;;5.95;2.30;;;25.00;69.10;;;;;;5074423;28;20139;-50
2021/07/05 15:06:40;;;;;;;6.90;2.72;;;25.10;69.20;;;;;;5074607;28;20115;-51
2021/07/05 15:09:06;;;;;;;6.82;2.70;;;25.00;69.20;;;;;;5074432;28;20035;-50
2021/07/05 15:12:12;;;;;;;7.07;2.00;;;25.00;68.70;;;;;;5096109;27;20539;-52
2021/07/05 15:14:38;;;;;;;9.15;2.45;;;25.00;69.20;;;;;;5096023;28;20134;-51
2021/07/05 15:17:03;;;;;;;4.20;1.90;;;25.00;69.10;;;;;;5095958;28;20177;-51
2021/07/05 15:19:29;;;;;;;5.28;2.08;;;25.00;69.60;;;;;;5095879;28;20099;-51
2021/07/05 15:21:55;;;;;;;4.93;2.00;;;25.00;69.10;;;;;;5096041;28;20020;-51
2021/07/05 15:24:21;;;;;;;5.88;2.03;;;25.00;69.00;;;;;;5095355;28;20091;-51
2021/07/05 15:26:47;;;;;;;4.53;2.00;;;25.00;69.00;;;;;;5095373;28;20024;-51
2021/07/05 15:29:13;;;;;;;5.18;1.73;;;25.00;69.00;;;;;;5081552;28;20073;-50
2021/07/05 15:31:40;;;;;;;4.22;2.17;;;25.00;69.00;;;;;;5093852;28;20066;-51
2021/07/05 15:34:07;;;;;;;7.00;2.30;;;25.00;69.00;;;;;;5095399;28;20684;-51
2021/07/05 15:36:34;;;;;;;8.82;4.30;;;25.00;69.00;;;;;;5095477;28;20107;-52
2021/07/05 15:39:00;;;;;;;8.82;4.68;;;25.00;68.90;;;;;;5095591;28;20047;-51
2021/07/05 15:41:27;;;;;;;7.10;3.60;;;25.00;69.00;;;;;;5095664;28;20031;-52
2021/07/05 15:43:53;;;;;;;6.75;3.05;;;25.00;69.00;;;;;;5095586;28;20028;-51
2021/07/05 15:46:19;;;;;;;7.13;4.25;;;25.00;69.00;;;;;;5088324;28;20032;-52
2021/07/05 15:48:45;;;;;;;9.02;4.88;;;25.00;69.10;;;;;;5074669;28;20058;-51
2021/07/05 15:51:11;;;;;;;10.02;4.88;;;25.00;69.20;;;;;;5074954;28;20044;-51
2021/07/05 15:53:37;;;;;;;8.25;5.15;;;25.00;69.20;;;;;;5074697;28;20141;-52
2021/07/05 15:56:03;;;;;;;7.07;3.95;;;25.00;69.30;;;;;;5074395;28;20554;-51
2021/07/05 15:58:29;;;;;;;8.50;5.20;;;25.00;69.00;;;;;;5083268;28;20020;-51
2021/07/05 16:00:55;;;;;;;7.35;4.13;;;25.00;69.20;;;;;;5089028;28;20040;-51
2021/07/05 16:03:23;;;;;;;10.82;3.67;;;25.00;69.20;;;;;;5072944;28;20046;-53
2021/07/05 16:06:53;;;;;;;4.70;2.30;;;25.10;68.70;;;;;;5075421;27;20611;-50
2021/07/05 16:09:19;;;;;;;5.20;2.15;;;25.00;68.90;;;;;;5075165;28;20115;-52
2021/07/05 16:11:44;;;;;;;5.53;1.90;;;25.00;68.80;;;;;;5074958;28;20166;-51
2021/07/05 16:14:10;;;;;;;5.32;1.88;;;25.00;68.70;;;;;;5075288;28;20480;-51